createdAt,value
2022-10-26T00:00:16.264Z,0.01
2022-10-26T00:05:16.422Z,0.01
2022-10-26T00:10:16.451Z,0.01
2022-10-26T00:15:16.379Z,0.01
2022-10-26T00:20:16.309Z,0.01
2022-10-26T00:25:16.233Z,0.00
2022-10-26T00:30:16.362Z,0.00
2022-10-26T00:35:24.212Z,0.00
2022-10-26T00:40:16.409Z,0.00
2022-10-26T00:45:16.424Z,0.00
2022-10-26T00:50:16.289Z,0.00
2022-10-26T00:55:16.331Z,0.00
2022-10-26T01:00:16.371Z,0.00
2022-10-26T01:05:16.353Z,0.00
2022-10-26T01:10:16.461Z,0.00
2022-10-26T01:15:16.425Z,0.00
2022-10-26T01:20:16.460Z,0.00
2022-10-26T01:25:16.402Z,0.00
2022-10-26T01:30:16.414Z,0.00
2022-10-26T01:35:16.448Z,0.00
2022-10-26T01:40:16.596Z,0.00
2022-10-26T01:45:16.501Z,0.00
2022-10-26T01:50:16.811Z,0.00
2022-10-26T01:55:16.356Z,0.00
2022-10-26T02:00:16.609Z,0.00
2022-10-26T02:05:16.552Z,0.00
2022-10-26T02:10:16.613Z,0.00
2022-10-26T02:15:16.501Z,0.00
2022-10-26T02:20:16.634Z,0.00
2022-10-26T02:25:16.614Z,0.00
2022-10-26T02:30:16.542Z,0.00
2022-10-26T02:35:16.575Z,0.00
2022-10-26T02:40:16.574Z,0.00
2022-10-26T02:45:16.568Z,0.00
2022-10-26T02:50:16.641Z,0.00
2022-10-26T02:55:16.573Z,0.00
2022-10-26T03:00:16.619Z,0.00
2022-10-26T03:05:16.603Z,0.00
2022-10-26T03:10:16.660Z,0.00
2022-10-26T03:15:16.649Z,0.00
2022-10-26T03:20:16.664Z,0.00
2022-10-26T03:25:16.626Z,0.00
2022-10-26T03:30:16.652Z,0.00
2022-10-26T03:35:16.650Z,0.00
2022-10-26T03:40:16.629Z,0.00
2022-10-26T03:45:16.612Z,0.00
2022-10-26T03:50:16.807Z,0.00
2022-10-26T03:55:16.587Z,0.00
2022-10-26T04:00:15.720Z,0.00
2022-10-26T04:05:15.768Z,0.00
2022-10-26T04:10:15.812Z,0.00
2022-10-26T04:15:15.711Z,0.00
2022-10-26T04:20:15.734Z,0.00
2022-10-26T04:25:15.809Z,0.00
2022-10-26T04:30:15.778Z,0.00
2022-10-26T04:35:15.714Z,0.00
2022-10-26T04:40:15.846Z,0.00
2022-10-26T04:45:15.876Z,0.00
2022-10-26T04:50:16.018Z,0.00
2022-10-26T04:55:15.981Z,0.00
2022-10-26T05:00:15.847Z,0.00
2022-10-26T05:05:15.798Z,0.00
2022-10-26T05:10:15.872Z,0.00
2022-10-26T05:15:16.101Z,0.00
2022-10-26T05:20:16.015Z,0.00
2022-10-26T05:25:15.940Z,0.00
2022-10-26T05:30:15.896Z,0.00
2022-10-26T05:35:15.960Z,0.00
2022-10-26T05:40:15.897Z,0.00
2022-10-26T05:45:15.781Z,0.00
2022-10-26T05:50:16.018Z,0.00
2022-10-26T05:55:15.832Z,0.00
2022-10-26T06:00:16.278Z,0.00
2022-10-26T06:05:15.936Z,0.00
2022-10-26T06:10:15.917Z,0.00
2022-10-26T06:15:16.006Z,0.00
2022-10-26T06:20:15.987Z,0.00
2022-10-26T06:25:16.150Z,0.00
2022-10-26T06:30:16.024Z,0.00
2022-10-26T06:35:15.938Z,0.00
2022-10-26T06:40:16.021Z,0.00
2022-10-26T06:45:16.024Z,0.00
2022-10-26T06:50:16.003Z,0.00
2022-10-26T06:55:16.098Z,0.00
2022-10-26T07:00:16.154Z,0.00
2022-10-26T07:05:16.094Z,0.00
2022-10-26T07:10:16.120Z,0.00
2022-10-26T07:15:16.057Z,0.00
2022-10-26T07:20:16.087Z,0.00
2022-10-26T07:25:16.312Z,0.00
2022-10-26T07:30:16.193Z,0.00
2022-10-26T07:35:16.177Z,0.00
2022-10-26T07:40:16.328Z,0.00
2022-10-26T07:45:16.113Z,0.00
2022-10-26T07:50:16.194Z,0.00
2022-10-26T07:55:16.317Z,0.00
2022-10-26T08:00:16.204Z,0.00
2022-10-26T08:05:16.203Z,0.00
2022-10-26T08:10:16.237Z,0.00
2022-10-26T08:15:16.322Z,0.00
2022-10-26T08:20:16.373Z,0.00
2022-10-26T08:25:18.937Z,0.00
2022-10-26T08:30:16.250Z,0.00
2022-10-26T08:35:16.242Z,0.00
2022-10-26T08:40:16.340Z,0.00
2022-10-26T08:45:16.366Z,0.00
2022-10-26T08:50:16.270Z,0.00
2022-10-26T08:55:16.322Z,0.00
2022-10-26T09:00:16.284Z,0.00
2022-10-26T09:05:16.319Z,0.00
2022-10-26T09:10:16.483Z,0.00
2022-10-26T09:15:16.436Z,0.00
2022-10-26T09:20:16.354Z,0.00
2022-10-26T09:25:16.384Z,0.00
2022-10-26T09:30:16.412Z,0.00
2022-10-26T09:35:16.477Z,0.00
2022-10-26T09:40:16.424Z,0.00
2022-10-26T09:45:16.419Z,0.00
2022-10-26T09:50:16.614Z,0.00
2022-10-26T09:55:16.506Z,0.00
2022-10-26T10:00:16.399Z,0.00
2022-10-26T10:05:27.144Z,0.00
2022-10-26T10:10:16.484Z,0.00
2022-10-26T10:15:16.424Z,0.00
2022-10-26T10:20:16.512Z,0.00
2022-10-26T10:25:16.510Z,0.00
2022-10-26T10:30:16.695Z,0.00
2022-10-26T10:35:16.513Z,0.00
2022-10-26T10:40:18.826Z,0.00
2022-10-26T10:45:16.888Z,0.00
2022-10-26T10:50:16.606Z,0.00
2022-10-26T10:55:16.533Z,0.00
2022-10-26T11:00:16.535Z,0.00
2022-10-26T11:05:16.549Z,0.00
2022-10-26T11:10:16.518Z,0.00
2022-10-26T11:15:16.578Z,0.00
2022-10-26T11:20:16.936Z,0.00
2022-10-26T11:25:16.851Z,0.00
2022-10-26T11:30:16.659Z,0.00
2022-10-26T11:35:16.658Z,0.00
2022-10-26T11:40:16.658Z,0.00
2022-10-26T11:45:16.627Z,0.00
2022-10-26T11:50:17.700Z,0.00
2022-10-26T11:55:16.590Z,0.00
2022-10-26T12:00:16.707Z,0.00
2022-10-26T12:05:16.720Z,0.00
2022-10-26T12:10:20.292Z,0.00
2022-10-26T12:15:16.718Z,0.00
2022-10-26T12:20:16.691Z,0.00
2022-10-26T12:25:16.803Z,0.00
2022-10-26T12:30:16.663Z,0.00
2022-10-26T12:35:16.815Z,0.00
2022-10-26T12:40:16.732Z,0.00
2022-10-26T12:45:16.781Z,0.01
2022-10-26T12:50:16.906Z,0.01
2022-10-26T12:55:16.741Z,0.05
2022-10-26T13:00:16.771Z,0.06
2022-10-26T13:05:16.983Z,0.06
2022-10-26T13:10:16.863Z,0.07
2022-10-26T13:15:16.804Z,0.08
2022-10-26T13:20:16.842Z,0.09
2022-10-26T13:25:16.980Z,0.11
2022-10-26T13:30:16.941Z,0.13
2022-10-26T13:35:17.035Z,0.14
2022-10-26T13:40:17.008Z,0.15
2022-10-26T13:45:16.863Z,0.16
2022-10-26T13:50:17.003Z,0.18
2022-10-26T13:55:16.836Z,0.14
2022-10-26T14:00:17.009Z,0.13
2022-10-26T14:05:16.949Z,0.13
2022-10-26T14:10:16.971Z,0.13
2022-10-26T14:15:16.952Z,0.12
2022-10-26T14:20:17.020Z,0.11
2022-10-26T14:25:16.993Z,0.09
2022-10-26T14:30:22.692Z,0.07
2022-10-26T14:35:17.010Z,0.06
2022-10-26T14:40:17.140Z,0.05
2022-10-26T14:45:29.353Z,0.03
2022-10-26T14:50:17.025Z,0.01
2022-10-26T14:55:17.062Z,0.02
2022-10-26T15:00:17.060Z,0.02
2022-10-26T15:05:17.016Z,0.02
2022-10-26T15:10:17.197Z,0.01
2022-10-26T15:15:17.267Z,0.01
2022-10-26T15:20:17.036Z,0.01
2022-10-26T15:25:17.084Z,0.01
2022-10-26T15:30:17.133Z,0.01
2022-10-26T15:35:17.070Z,0.02
2022-10-26T15:40:17.166Z,0.03
2022-10-26T15:45:17.269Z,0.04
2022-10-26T15:50:17.125Z,0.05
2022-10-26T15:55:17.248Z,0.04
2022-10-26T16:00:17.156Z,0.04
2022-10-26T16:05:17.162Z,0.05
2022-10-26T16:10:17.309Z,0.05
2022-10-26T16:15:17.186Z,0.06
2022-10-26T16:20:17.227Z,0.06
2022-10-26T16:25:17.267Z,0.06
2022-10-26T16:30:17.188Z,0.07
2022-10-26T16:35:17.331Z,0.06
2022-10-26T16:41:22.450Z,0.05
2022-10-26T16:45:17.241Z,0.04
2022-10-26T16:50:17.505Z,0.03
2022-10-26T16:55:17.477Z,0.03
2022-10-26T17:00:17.235Z,0.04
2022-10-26T17:05:17.410Z,0.03
2022-10-26T17:10:17.316Z,0.03
2022-10-26T17:15:19.788Z,0.02
2022-10-26T17:20:15.566Z,0.02
2022-10-26T17:25:17.553Z,0.02
2022-10-26T17:30:17.297Z,0.01
2022-10-26T17:35:17.361Z,0.01
2022-10-26T17:40:17.381Z,0.01
2022-10-26T17:45:17.325Z,0.01
2022-10-26T17:50:17.353Z,0.01
2022-10-26T17:55:17.341Z,0.01
2022-10-26T18:00:15.372Z,0.00
2022-10-26T18:05:15.417Z,0.00
2022-10-26T18:10:33.238Z,0.00
2022-10-26T18:15:15.651Z,0.00
2022-10-26T18:20:15.577Z,0.00
2022-10-26T18:25:15.394Z,0.00
2022-10-26T18:30:15.444Z,0.00
2022-10-26T18:35:15.594Z,0.00
2022-10-26T18:40:15.528Z,0.00
2022-10-26T18:45:15.476Z,0.00
2022-10-26T18:50:15.551Z,0.00
2022-10-26T18:55:15.501Z,0.00
2022-10-26T19:00:15.496Z,0.00
2022-10-26T19:05:15.540Z,0.00
2022-10-26T19:10:15.542Z,0.00
2022-10-26T19:15:15.514Z,0.00
2022-10-26T19:20:15.476Z,0.00
2022-10-26T19:25:15.577Z,0.00
2022-10-26T19:30:15.512Z,0.00
2022-10-26T19:35:15.667Z,0.00
2022-10-26T19:40:15.588Z,0.00
2022-10-26T19:45:15.668Z,0.00
2022-10-26T19:50:15.696Z,0.00
2022-10-26T19:55:15.540Z,0.00
2022-10-26T20:00:15.782Z,0.00
2022-10-26T20:05:15.616Z,0.00
2022-10-26T20:10:15.718Z,0.00
2022-10-26T20:15:15.666Z,0.00
2022-10-26T20:20:15.710Z,0.00
2022-10-26T20:25:15.868Z,0.00
2022-10-26T20:30:15.757Z,0.00
2022-10-26T20:35:15.683Z,0.00
2022-10-26T20:40:15.736Z,0.00
2022-10-26T20:45:15.721Z,0.00
2022-10-26T20:50:15.673Z,0.00
2022-10-26T20:55:15.769Z,0.00
2022-10-26T21:00:15.956Z,0.00
2022-10-26T21:05:15.745Z,0.00
2022-10-26T21:10:15.658Z,0.00
2022-10-26T21:15:15.884Z,0.00
2022-10-26T21:20:15.787Z,0.00
2022-10-26T21:25:15.837Z,0.00
2022-10-26T21:30:15.858Z,0.00
2022-10-26T21:35:15.916Z,0.00
2022-10-26T21:40:15.815Z,0.00
2022-10-26T21:45:15.792Z,0.00
2022-10-26T21:50:15.926Z,0.00
2022-10-26T21:55:15.806Z,0.00
2022-10-26T22:00:15.853Z,0.00
2022-10-26T22:05:15.894Z,0.00
2022-10-26T22:10:15.877Z,0.00
2022-10-26T22:15:15.899Z,0.00
2022-10-26T22:20:16.134Z,0.00
2022-10-26T22:25:16.159Z,0.00
2022-10-26T22:30:15.881Z,0.00
2022-10-26T22:35:29.077Z,0.00
2022-10-26T22:40:16.140Z,0.00
2022-10-26T22:45:15.983Z,0.00
2022-10-26T22:50:15.935Z,0.00
2022-10-26T22:55:15.960Z,0.00
2022-10-26T23:00:16.132Z,0.00
2022-10-26T23:05:16.098Z,0.00
2022-10-26T23:10:16.047Z,0.00
2022-10-26T23:15:16.027Z,0.00
2022-10-26T23:20:15.993Z,0.00
2022-10-26T23:25:16.032Z,0.00
2022-10-26T23:30:16.032Z,0.00
2022-10-26T23:35:16.257Z,0.00
2022-10-26T23:40:16.030Z,0.00
2022-10-26T23:45:16.215Z,0.00
2022-10-26T23:50:16.081Z,0.00
2022-10-26T23:55:16.059Z,0.00
